Time;durP1;ratioP1;P1;durP2;ratioP2;P2;SDS_P1;SDS_P2;PMS_P1;PMS_P2;Temp;Humidity;BMP_temperature;BMP_pressure;BME280_temperature;BME280_humidity;BME280_pressure;Samples;Min_cycle;Max_cycle;Signal;HPM_P1;HPM_P2
2020/12/27 00:01:01;;;;;;;44.42;16.17;;;;;;;0.57;97.84;101571.27;1697656;84;21034;-84
2020/12/27 00:03:27;;;;;;;50.90;18.02;;;;;;;0.54;97.95;101576.91;1697834;84;21010;-84
2020/12/27 00:05:53;;;;;;;44.85;16.32;;;;;;;0.51;98.03;101582.55;1697729;84;21050;-83
2020/12/27 00:08:19;;;;;;;44.98;17.57;;;;;;;0.52;98.17;101591.64;1697975;84;21104;-84
2020/12/27 00:10:44;;;;;;;45.15;16.82;;;;;;;0.52;98.05;101584.20;1697705;84;21310;-84
2020/12/27 00:13:10;;;;;;;45.80;17.57;;;;;;;0.55;98.60;101583.35;1697712;84;20955;-84
2020/12/27 00:15:36;;;;;;;49.23;18.77;;;;;;;0.58;98.16;101580.87;1697961;84;21705;-84
2020/12/27 00:18:02;;;;;;;49.10;18.87;;;;;;;0.57;97.84;101586.67;1697914;84;20951;-84
2020/12/27 00:20:27;;;;;;;50.78;18.42;;;;;;;0.55;97.69;101591.81;1697930;84;21124;-83
2020/12/27 00:22:53;;;;;;;50.88;18.85;;;;;;;0.52;97.75;101589.00;1697874;84;22411;-83
2020/12/27 00:25:19;;;;;;;48.90;18.37;;;;;;;0.54;98.35;101589.66;1697825;84;20959;-84
2020/12/27 00:27:45;;;;;;;45.35;17.98;;;;;;;0.55;98.74;101584.68;1697836;84;21657;-84
2020/12/27 00:30:11;;;;;;;50.43;19.12;;;;;;;0.54;98.17;101580.89;1697880;84;20943;-84
2020/12/27 00:32:37;;;;;;;50.95;17.80;;;;;;;0.52;97.79;101575.73;1697932;84;21002;-84
2020/12/27 00:35:03;;;;;;;77.27;23.85;;;;;;;0.41;96.19;101569.45;1697821;84;21261;-83
2020/12/27 00:37:33;;;;;;;73.25;22.67;;;;;;;0.36;96.59;101567.83;1697884;84;21256;-84
2020/12/27 00:39:59;;;;;;;67.20;22.67;;;;;;;0.31;96.70;101576.28;1697882;84;21149;-84
2020/12/27 00:42:25;;;;;;;70.35;23.90;;;;;;;0.28;96.96;101576.61;1697903;84;21050;-84
2020/12/27 00:44:50;;;;;;;65.95;23.75;;;;;;;0.28;97.88;101576.61;1697935;84;21114;-84
2020/12/27 00:47:16;;;;;;;69.75;24.52;;;;;;;0.25;97.13;101587.55;1697855;84;21149;-84
2020/12/27 00:49:42;;;;;;;67.10;23.30;;;;;;;0.22;96.52;101591.86;1697767;84;21070;-83
2020/12/27 00:52:08;;;;;;;63.42;22.70;;;;;;;0.14;96.05;101597.98;1697905;84;20943;-84
2020/12/27 00:54:34;;;;;;;70.45;24.05;;;;;;;0.10;96.36;101595.85;1697686;83;21056;-83
2020/12/27 00:57:00;;;;;;;63.50;23.18;;;;;;;0.10;96.71;101590.55;1694255;84;21573;-83
2020/12/27 00:59:26;;;;;;;60.63;23.38;;;;;;;0.07;96.51;101590.38;1677513;84;22387;-83
2020/12/27 01:01:55;;;;;;;61.90;23.38;;;;;;;0.03;96.50;101598.81;1697454;84;21601;-83
2020/12/27 01:04:21;;;;;;;62.48;23.83;;;;;;;-0.02;96.18;101607.28;1697476;84;21109;-83
2020/12/27 01:06:47;;;;;;;57.95;22.13;;;;;;;-0.02;96.84;101605.45;1697667;84;21121;-83
2020/12/27 01:09:13;;;;;;;60.05;21.02;;;;;;;-0.02;96.88;101598.83;1697691;84;21035;-83
2020/12/27 01:11:41;;;;;;;61.98;20.62;;;;;;;-0.02;96.57;101594.85;1697622;84;21254;-84
2020/12/27 01:14:07;;;;;;;55.15;21.52;;;;;;;-0.10;96.29;101598.81;1697451;84;21172;-83
2020/12/27 01:16:33;;;;;;;52.30;20.05;;;;;;;-0.15;96.24;101597.15;1697541;84;21622;-83
2020/12/27 01:18:58;;;;;;;57.00;20.08;;;;;;;-0.20;96.24;101594.69;1697465;84;21019;-83
2020/12/27 01:21:31;;;;;;;54.73;19.82;;;;;;;-0.20;96.64;101599.48;1697606;84;20944;-83
2020/12/27 01:23:58;;;;;;;54.75;20.95;;;;;;;-0.25;96.87;101602.61;1697577;84;21267;-84
2020/12/27 01:26:32;;;;;;;50.43;19.80;;;;;;;-0.29;96.47;101599.97;1677293;84;21157;-83
2020/12/27 01:28:59;;;;;;;48.87;19.12;;;;;;;-0.31;96.55;101603.27;1697236;84;21173;-84
2020/12/27 01:31:26;;;;;;;49.48;18.57;;;;;;;-0.33;96.58;101605.24;1677532;84;21145;-83
2020/12/27 01:33:53;;;;;;;54.83;19.35;;;;;;;-0.34;96.61;101611.54;1697547;84;21173;-83
2020/12/27 01:36:33;;;;;;;51.65;19.20;;;;;;;-0.34;96.90;101608.06;1697549;84;21235;-83
2020/12/27 01:39:01;;;;;;;58.25;20.82;;;;;;;-0.36;96.89;101606.89;1697436;84;21142;-84
2020/12/27 01:41:27;;;;;;;47.00;17.67;;;;;;;-0.39;96.19;101607.22;1697427;84;21141;-84
2020/12/27 01:44:12;;;;;;;46.88;17.40;;;;;;;-0.49;95.93;101602.58;1697538;83;21145;-83
2020/12/27 01:46:42;;;;;;;46.68;16.75;;;;;;;-0.51;96.90;101605.38;1697464;84;21165;-84
2020/12/27 01:49:10;;;;;;;51.80;18.57;;;;;;;-0.57;96.62;101605.20;1677962;85;21236;-83
2020/12/27 01:51:38;;;;;;;52.62;19.00;;;;;;;-0.63;96.38;101605.34;1678168;85;21195;-83
2020/12/27 01:54:05;;;;;;;46.80;18.07;;;;;;;-0.67;96.20;101609.31;1677340;85;21180;-83
2020/12/27 01:56:40;;;;;;;51.18;17.73;;;;;;;-0.71;95.90;101608.81;1675742;85;21124;-83
2020/12/27 01:59:23;;;;;;;48.68;18.17;;;;;;;-0.73;95.94;101615.25;1673476;85;21505;-84
2020/12/27 02:01:49;;;;;;;54.18;19.10;;;;;;;-0.74;96.20;101631.59;1675863;85;21243;-83
2020/12/27 02:04:15;;;;;;;55.83;20.08;;;;;;;-0.73;96.32;101641.72;1675710;85;20977;-84
2020/12/27 02:06:42;;;;;;;51.10;19.42;;;;;;;-0.69;96.66;101635.93;1675836;85;20985;-83
2020/12/27 02:09:08;;;;;;;54.53;19.87;;;;;;;-0.67;97.72;101646.38;1675747;85;21193;-83
2020/12/27 02:11:34;;;;;;;49.53;19.05;;;;;;;-0.70;97.39;101647.52;1675983;85;21522;-84
2020/12/27 02:14:01;;;;;;;54.70;18.57;;;;;;;-0.71;97.00;101656.45;1676002;85;21190;-83
2020/12/27 02:16:29;;;;;;;49.60;19.45;;;;;;;-0.75;96.58;101652.95;1675889;85;21199;-83
2020/12/27 02:19:01;;;;;;;44.60;17.07;;;;;;;-0.78;96.76;101650.62;1675828;85;21564;-83
2020/12/27 02:21:28;;;;;;;46.45;18.30;;;;;;;-0.77;97.28;101656.23;1676097;85;21363;-83
2020/12/27 02:24:01;;;;;;;45.65;17.05;;;;;;;-0.75;97.55;101667.00;1675963;85;21597;-83
2020/12/27 02:26:28;;;;;;;48.42;18.12;;;;;;;-0.71;97.52;101663.53;1676058;85;21219;-83
2020/12/27 02:28:56;;;;;;;44.05;16.97;;;;;;;-0.71;97.39;101663.06;1675855;85;21152;-83
2020/12/27 02:31:26;;;;;;;39.92;17.00;;;;;;;-0.64;97.56;101668.55;1675770;85;21164;-83
2020/12/27 02:33:53;;;;;;;35.75;15.08;;;;;;;-0.63;97.62;101672.84;1671568;85;21259;-83
2020/12/27 02:36:19;;;;;;;40.90;16.12;;;;;;;-0.61;97.63;101680.14;1671453;85;21181;-83
2020/12/27 02:38:45;;;;;;;38.83;16.15;;;;;;;-0.61;97.69;101681.46;1671723;85;21264;-83
2020/12/27 02:41:17;;;;;;;43.85;16.10;;;;;;;-0.60;97.73;101688.41;1671803;85;21006;-83
2020/12/27 02:43:43;;;;;;;38.25;15.35;;;;;;;-0.57;97.97;101691.23;1671953;85;21172;-83
2020/12/27 02:46:26;;;;;;;42.98;15.68;;;;;;;-0.56;98.07;101688.44;1676464;84;21205;-83
2020/12/27 02:48:53;;;;;;;38.80;16.70;;;;;;;-0.53;98.15;101681.97;1680674;85;21228;-83
2020/12/27 02:51:20;;;;;;;43.87;16.85;;;;;;;-0.50;97.94;101688.27;1680501;85;21242;-84
2020/12/27 02:53:50;;;;;;;44.98;16.55;;;;;;;-0.45;98.06;101696.56;1680540;85;21137;-83
2020/12/27 02:56:18;;;;;;;43.42;16.75;;;;;;;-0.43;98.02;101705.19;1682670;85;21137;-83
2020/12/27 02:58:45;;;;;;;43.15;15.60;;;;;;;-0.35;98.21;101712.34;1682699;85;21776;-83
2020/12/27 03:01:11;;;;;;;44.85;16.73;;;;;;;-0.34;98.14;101706.88;1682708;85;21605;-83
2020/12/27 03:03:37;;;;;;;49.48;18.00;;;;;;;-0.26;98.71;101718.00;1682720;85;21189;-83
2020/12/27 03:06:03;;;;;;;41.77;16.65;;;;;;;-0.25;98.24;101719.64;1682311;85;21209;-83
2020/12/27 03:08:29;;;;;;;45.17;17.73;;;;;;;-0.24;98.19;101718.18;1682758;85;21297;-83
2020/12/27 03:10:55;;;;;;;41.55;14.90;;;;;;;-0.22;97.88;101728.59;1682508;85;20943;-82
2020/12/27 03:13:21;;;;;;;39.23;15.32;;;;;;;-0.22;97.55;101727.77;1682639;85;20955;-83
2020/12/27 03:15:47;;;;;;;41.20;15.78;;;;;;;-0.22;97.49;101737.05;1682733;85;21125;-83
2020/12/27 03:18:13;;;;;;;51.18;18.70;;;;;;;-0.22;97.41;101738.37;1682679;85;20939;-83
2020/12/27 03:20:39;;;;;;;42.25;16.52;;;;;;;-0.20;97.62;101748.31;1682580;85;20943;-83
2020/12/27 03:23:04;;;;;;;50.75;17.45;;;;;;;-0.16;98.74;101744.34;1682692;85;21070;-83
2020/12/27 03:25:31;;;;;;;46.77;18.20;;;;;;;-0.20;98.79;101738.55;1682678;85;21024;-83
2020/12/27 03:27:56;;;;;;;44.25;17.00;;;;;;;-0.19;98.47;101742.84;1682522;85;21239;-83
2020/12/27 03:30:22;;;;;;;52.67;18.10;;;;;;;-0.18;98.07;101745.81;1687776;84;20959;-83
2020/12/27 03:32:48;;;;;;;50.43;17.82;;;;;;;-0.12;98.73;101747.85;1697749;84;21199;-83
2020/12/27 03:35:14;;;;;;;43.55;16.62;;;;;;;-0.19;98.81;101751.29;1677425;84;21614;-83
2020/12/27 03:37:40;;;;;;;48.35;17.15;;;;;;;-0.22;97.96;101763.03;1677614;84;21057;-83
2020/12/27 03:40:08;;;;;;;43.17;15.35;;;;;;;-0.25;97.20;101763.34;1697484;84;21113;-83
2020/12/27 03:42:34;;;;;;;40.60;15.20;;;;;;;-0.28;96.69;101773.77;1697520;84;21697;-83
2020/12/27 03:45:01;;;;;;;44.23;16.12;;;;;;;-0.29;97.07;101773.94;1697551;84;21146;-83
2020/12/27 03:47:27;;;;;;;44.42;16.02;;;;;;;-0.28;97.15;101765.82;1697715;84;21209;-83
2020/12/27 03:49:52;;;;;;;37.98;13.83;;;;;;;-0.30;97.03;101770.44;1697545;84;21618;-83
2020/12/27 03:52:18;;;;;;;37.42;14.87;;;;;;;-0.30;97.04;101774.91;1697652;84;21249;-83
2020/12/27 03:54:44;;;;;;;39.50;14.68;;;;;;;-0.28;97.35;101774.27;1698238;83;21132;-83
2020/12/27 03:57:10;;;;;;;34.50;14.03;;;;;;;-0.22;97.98;101785.55;1700398;84;20998;-83
2020/12/27 03:59:36;;;;;;;38.35;14.20;;;;;;;-0.19;97.88;101790.52;1700397;84;21082;-83
2020/12/27 04:02:02;;;;;;;37.90;14.58;;;;;;;-0.16;97.83;101794.67;1700445;84;21046;-83
2020/12/27 04:04:27;;;;;;;33.73;13.95;;;;;;;-0.14;98.04;101794.86;1700423;84;23100;-83
2020/12/27 04:06:54;;;;;;;31.15;13.48;;;;;;;-0.10;98.03;101807.28;1700336;84;21040;-83
2020/12/27 04:09:20;;;;;;;37.08;13.35;;;;;;;-0.09;97.96;101811.11;1700423;84;21078;-83
2020/12/27 04:11:46;;;;;;;41.80;13.98;;;;;;;-0.04;98.06;101810.11;1700218;84;21221;-83
2020/12/27 04:14:12;;;;;;;37.38;14.00;;;;;;;-0.01;97.67;101811.62;1700392;84;21071;-83
2020/12/27 04:16:37;;;;;;;40.05;14.78;;;;;;;0.02;97.86;101811.30;1700312;84;21240;-83
2020/12/27 04:19:04;;;;;;;34.45;14.00;;;;;;;0.04;97.87;101819.10;1700315;84;20943;-83
2020/12/27 04:21:30;;;;;;;36.53;13.48;;;;;;;0.01;97.45;101821.57;1700258;84;21054;-83
2020/12/27 04:23:56;;;;;;;36.45;13.93;;;;;;;0.04;97.59;101821.75;1700315;84;21558;-82
2020/12/27 04:26:22;;;;;;;38.20;14.03;;;;;;;0.04;97.67;101827.05;1700464;84;20955;-82
2020/12/27 04:28:49;;;;;;;38.63;14.70;;;;;;;0.07;98.00;101822.25;1700277;84;21170;-83
2020/12/27 04:31:22;;;;;;;37.45;14.50;;;;;;;0.14;98.30;101833.03;1700414;84;21607;-83
2020/12/27 04:33:48;;;;;;;34.90;14.33;;;;;;;0.13;97.50;101828.73;1700402;83;21181;-82
2020/12/27 04:36:18;;;;;;;33.80;13.15;;;;;;;0.17;98.32;101833.54;1700209;84;21594;-83
2020/12/27 04:38:44;;;;;;;35.33;13.58;;;;;;;0.24;98.73;101835.08;1700078;83;21213;-84
2020/12/27 04:41:13;;;;;;;31.60;12.80;;;;;;;0.16;97.96;101832.39;1700188;84;21598;-83
2020/12/27 04:43:41;;;;;;;43.33;15.08;;;;;;;0.07;96.17;101838.66;1649516;86;21272;-83
2020/12/27 04:46:13;;;;;;;37.93;14.10;;;;;;;-0.12;95.38;101844.55;1649621;86;21095;-83
2020/12/27 04:48:43;;;;;;;33.58;13.95;;;;;;;-0.20;96.93;101841.03;1649821;86;21595;-83
2020/12/27 04:51:11;;;;;;;37.98;14.18;;;;;;;-0.29;96.72;101846.27;1649372;86;21218;-83
2020/12/27 04:53:39;;;;;;;43.28;14.83;;;;;;;-0.40;96.30;101853.16;1649376;86;21192;-83
2020/12/27 04:56:07;;;;;;;43.08;15.65;;;;;;;-0.53;95.82;101861.99;1645466;86;21177;-81
2020/12/27 04:58:33;;;;;;;34.48;13.83;;;;;;;-0.59;95.84;101854.67;1644444;86;21169;-83
2020/12/27 05:01:02;;;;;;;40.78;14.43;;;;;;;-0.64;95.92;101858.30;1644244;86;21182;-83
2020/12/27 05:03:29;;;;;;;35.73;14.03;;;;;;;-0.67;96.03;101863.91;1643642;86;21153;-82
2020/12/27 05:05:56;;;;;;;34.78;13.50;;;;;;;-0.77;95.32;101867.95;1643465;87;21205;-82
2020/12/27 05:08:23;;;;;;;34.98;14.25;;;;;;;-0.85;95.25;101871.84;1643929;87;21253;-82
2020/12/27 05:10:49;;;;;;;37.17;13.90;;;;;;;-0.88;95.57;101870.83;1644015;87;21233;-82
2020/12/27 05:13:16;;;;;;;33.25;13.72;;;;;;;-0.97;95.17;101866.81;1643949;87;21141;-83
2020/12/27 05:15:44;;;;;;;35.08;13.32;;;;;;;-1.08;94.17;101881.59;1643773;87;21655;-83
2020/12/27 05:18:11;;;;;;;32.25;13.22;;;;;;;-1.15;94.81;101889.31;1643627;86;21957;-83
2020/12/27 05:20:43;;;;;;;34.75;14.30;;;;;;;-1.18;95.29;101901.52;1643929;86;21696;-83
2020/12/27 05:23:10;;;;;;;40.75;15.63;;;;;;;-1.24;95.23;101899.93;1643715;86;21205;-83
2020/12/27 05:25:39;;;;;;;36.50;14.83;;;;;;;-1.40;93.70;101900.11;1643932;87;21109;-83
2020/12/27 05:28:09;;;;;;;42.73;15.32;;;;;;;-1.51;94.01;101909.56;1644096;87;21293;-83
2020/12/27 05:30:36;;;;;;;35.78;14.78;;;;;;;-1.60;94.02;101910.45;1643360;85;21250;-83
2020/12/27 05:33:17;;;;;;;36.38;13.98;;;;;;;-1.68;93.85;101913.81;1643576;86;21650;-83
2020/12/27 05:35:44;;;;;;;44.55;15.85;;;;;;;-1.87;91.87;101917.39;1643973;87;21154;-83
2020/12/27 05:38:11;;;;;;;40.43;16.02;;;;;;;-1.94;93.38;101918.96;1644243;86;21214;-83
2020/12/27 05:40:40;;;;;;;41.15;15.45;;;;;;;-2.01;93.50;101920.50;1673313;84;21241;-83
2020/12/27 05:43:15;;;;;;;41.58;15.28;;;;;;;-2.11;93.61;101921.86;1697585;84;21179;-83
2020/12/27 05:45:42;;;;;;;36.05;15.28;;;;;;;-2.16;94.03;101921.45;1695724;84;21150;-83
2020/12/27 05:48:08;;;;;;;39.03;16.55;;;;;;;-2.17;94.48;101938.77;1697620;84;21149;-83
2020/12/27 05:50:42;;;;;;;37.23;13.83;;;;;;;-2.16;94.96;101944.39;1697816;84;21123;-83
2020/12/27 05:53:21;;;;;;;41.37;15.98;;;;;;;-2.20;94.26;101943.84;1697908;84;21130;-83
2020/12/27 05:55:53;;;;;;;42.30;16.80;;;;;;;-2.25;94.14;101952.67;1697748;83;21922;-83
2020/12/27 05:58:24;;;;;;;37.00;15.60;;;;;;;-2.30;94.21;101954.89;1643881;86;21264;-83
2020/12/27 06:00:55;;;;;;;41.48;15.85;;;;;;;-2.30;94.42;101967.60;1644779;87;21198;-83
2020/12/27 06:03:29;;;;;;;37.83;15.90;;;;;;;-2.29;94.73;101967.14;1644635;86;21161;-84
2020/12/27 06:06:10;;;;;;;37.48;15.80;;;;;;;-2.26;94.85;101975.23;1643724;87;21162;-84
2020/12/27 06:09:02;;;;;;;44.63;17.20;;;;;;;-2.33;94.37;101980.26;1643908;87;22097;-83
2020/12/27 06:11:48;;;;;;;46.00;17.25;;;;;;;-2.37;94.34;101977.08;1644271;87;21139;-83
2020/12/27 06:14:19;;;;;;;43.33;16.42;;;;;;;-2.41;93.84;101978.34;1610962;88;21157;-84
2020/12/27 06:16:53;;;;;;;43.08;15.83;;;;;;;-2.46;93.67;101983.20;1614302;88;21682;-83
2020/12/27 06:19:37;;;;;;;39.83;14.80;;;;;;;-2.35;94.21;101994.11;1611162;88;21196;-83
2020/12/27 06:22:07;;;;;;;35.73;13.93;;;;;;;-1.32;95.03;101991.92;1614620;88;21356;-83
2020/12/27 06:24:34;;;;;;;31.52;12.60;;;;;;;0.08;94.42;101998.81;1524330;94;21203;-83
2020/12/27 06:27:12;;;;;;;;;;;;;;;;;;;;;
2020/12/27 06:29:43;;;;;;;43.92;12.73;;;;;;;2.23;89.37;102006.56;1477313;97;21672;-85
2020/12/27 06:32:16;;;;;;;114.12;16.95;;;;;;;3.38;89.39;102007.73;1450381;98;21282;-85
2020/12/27 06:34:45;;;;;;;1077.88;51.18;;;;;;;4.64;88.60;102011.52;1452996;98;22420;-84
2020/12/27 06:37:16;;;;;;;1579.03;71.53;;;;;;;5.69;85.86;102019.06;1452930;98;21279;-84
2020/12/27 06:39:47;;;;;;;1999.90;134.20;;;;;;;6.49;81.62;102018.34;1415485;101;21291;-85
2020/12/27 06:42:25;;;;;;;1999.90;185.25;;;;;;;7.48;84.34;102019.74;1415537;101;21240;-85
2020/12/27 06:44:52;;;;;;;1999.90;192.90;;;;;;;8.38;83.72;102022.34;1415556;101;21317;-84
2020/12/27 06:47:18;;;;;;;1999.90;247.42;;;;;;;9.14;83.01;102019.47;1415472;101;21303;-84
2020/12/27 06:49:45;;;;;;;1999.90;188.25;;;;;;;10.37;79.80;102018.14;1415240;101;21333;-84
2020/12/27 06:52:23;;;;;;;1999.90;190.62;;;;;;;10.37;79.80;102018.14;1415387;101;21331;-83
2020/12/27 06:54:54;;;;;;;1999.90;331.15;;;;;;;10.80;75.90;102032.09;1413667;101;21213;-83
2020/12/27 06:57:44;;;;;;;1999.90;367.15;;;;;;;11.57;75.92;102041.22;1400244;102;21166;-83
2020/12/27 07:00:29;;;;;;;1999.90;427.60;;;;;;;12.37;77.90;102039.92;1405249;101;21306;-83
2020/12/27 07:03:22;;;;;;;1999.90;309.48;;;;;;;13.25;78.02;102031.72;1397164;101;21612;-83
2020/12/27 07:05:50;;;;;;;1999.90;213.87;;;;;;;14.04;77.67;102035.81;1413804;101;21323;-83
2020/12/27 07:08:42;;;;;;;1999.90;304.40;;;;;;;14.94;78.79;102037.87;1435877;99;21232;-83
2020/12/27 07:11:09;;;;;;;1999.90;118.17;;;;;;;15.35;73.93;102043.75;1482149;96;21262;-83
2020/12/27 07:13:48;;;;;;;1999.90;316.52;;;;;;;15.37;67.02;102042.42;1483851;96;22017;-83
2020/12/27 07:16:16;;;;;;;1999.90;165.62;;;;;;;15.96;67.87;102044.88;1478458;96;21679;-83
2020/12/27 07:18:48;;;;;;;1999.90;325.93;;;;;;;16.26;68.05;102043.73;1481918;96;21136;-83
2020/12/27 07:21:19;;;;;;;1999.90;314.02;;;;;;;16.98;70.74;102053.66;1517043;90;21238;-83
2020/12/27 07:24:07;;;;;;;1999.90;126.70;;;;;;;17.52;68.82;102055.96;1570201;90;21647;-83
2020/12/27 07:26:33;;;;;;;1999.90;87.10;;;;;;;17.28;55.06;102061.65;1573180;91;21164;-83
2020/12/27 07:29:11;;;;;;;1999.90;91.15;;;;;;;16.75;41.15;102069.31;1573140;91;21233;-83
2020/12/27 07:31:39;;;;;;;1999.90;305.98;;;;;;;16.46;46.32;102066.16;1573033;89;21190;-83
2020/12/27 07:34:07;;;;;;;1999.90;125.70;;;;;;;16.89;65.25;102072.97;1573020;91;21505;-83
2020/12/27 07:36:36;;;;;;;1999.90;172.95;;;;;;;17.43;65.16;102061.13;1600394;88;21136;-83
2020/12/27 07:39:10;;;;;;;1999.90;257.65;;;;;;;18.03;63.27;102060.64;1630742;88;21974;-83
2020/12/27 07:41:40;;;;;;;1999.90;303.45;;;;;;;18.63;65.15;102064.91;1518132;93;21349;-81
2020/12/27 07:44:14;;;;;;;1999.90;150.80;;;;;;;18.40;60.18;102068.52;1518191;94;21257;-81
2020/12/27 07:46:42;;;;;;;1999.90;110.97;;;;;;;18.90;60.51;102065.38;1499501;94;21639;-81
2020/12/27 07:49:10;;;;;;;1999.90;318.05;;;;;;;19.08;53.98;102069.95;1518494;94;21770;-80
2020/12/27 07:51:36;;;;;;;1999.90;305.27;;;;;;;19.17;61.30;102073.72;1518418;94;22500;-80
2020/12/27 07:54:03;;;;;;;1999.90;171.32;;;;;;;19.03;59.63;102072.98;1515209;94;21209;-80
2020/12/27 07:56:31;;;;;;;1958.40;77.03;;;;;;;19.04;56.04;102080.63;1545504;91;21176;-80
2020/12/27 07:59:00;;;;;;;1833.18;71.70;;;;;;;18.87;51.13;102082.88;1564695;91;21173;-80
2020/12/27 08:01:33;;;;;;;1999.90;111.08;;;;;;;18.83;39.77;102088.91;1564765;91;21628;-80
2020/12/27 08:04:07;;;;;;;1999.90;200.70;;;;;;;19.33;50.44;102088.95;1571288;90;21219;-80
2020/12/27 08:06:42;;;;;;;1999.90;170.68;;;;;;;19.54;55.11;102088.83;1598229;89;21221;-80
2020/12/27 08:09:13;;;;;;;670.83;35.40;;;;;;;20.00;54.83;102089.86;1610323;87;21547;-81
2020/12/27 08:11:44;;;;;;;1999.90;204.53;;;;;;;20.16;40.59;102094.92;1610292;89;21238;-81
2020/12/27 08:14:13;;;;;;;967.17;48.75;;;;;;;20.35;52.58;102099.14;1610197;89;21187;-81
2020/12/27 08:16:42;;;;;;;1999.90;132.55;;;;;;;20.47;43.35;102103.39;1610185;89;21249;-81
2020/12/27 08:19:14;;;;;;;257.40;21.10;;;;;;;20.69;43.86;102103.73;1609973;89;21282;-81
2020/12/27 08:21:44;;;;;;;;;;;;;;;18.82;34.31;102101.46;1612582;89;21229;-81
2020/12/27 08:24:15;;;;;;;287.30;19.52;;;;;;;18.76;37.50;102103.95;1610082;87;20260;-81
2020/12/27 08:26:46;;;;;;;252.82;19.45;;;;;;;17.15;43.42;102121.01;1610209;89;21632;-81
2020/12/27 08:29:19;;;;;;;21.45;12.60;;;;;;;15.54;50.66;102119.77;1610266;88;21303;-81
2020/12/27 08:31:48;;;;;;;22.45;12.20;;;;;;;14.02;49.89;102117.36;1610314;89;21547;-81
2020/12/27 08:34:20;;;;;;;22.58;12.10;;;;;;;13.08;54.01;102127.20;1610163;89;21216;-81
2020/12/27 08:36:55;;;;;;;22.75;11.95;;;;;;;12.14;55.44;102128.57;1589051;90;21191;-82
2020/12/27 08:39:41;;;;;;;24.18;11.83;;;;;;;11.13;56.58;102134.20;1609262;87;21200;-82
2020/12/27 08:42:38;;;;;;;23.70;11.70;;;;;;;10.36;56.63;102137.77;1612897;88;21646;-83
2020/12/27 08:45:16;;;;;;;22.73;11.53;;;;;;;8.96;53.23;102138.48;1612675;88;21240;-82
2020/12/27 08:48:10;;;;;;;22.35;11.18;;;;;;;7.32;59.16;102131.39;1612645;88;21689;-82
2020/12/27 08:50:39;;;;;;;;;;;;;;;7.17;61.07;102128.34;1613534;88;21329;-82
2020/12/27 08:53:09;;;;;;;22.22;10.28;;;;;;;6.24;61.04;102135.77;1612832;88;20316;-82
2020/12/27 08:55:37;;;;;;;24.10;11.33;;;;;;;6.12;62.25;102130.63;1614695;87;21205;-82
2020/12/27 08:58:04;;;;;;;25.80;11.93;;;;;;;5.60;64.39;102141.06;1628852;88;21113;-82
2020/12/27 09:00:34;;;;;;;23.65;11.33;;;;;;;5.63;65.04;102140.69;1628942;88;21217;-82
2020/12/27 09:03:02;;;;;;;26.60;11.15;;;;;;;5.42;66.32;102134.80;1628946;88;21133;-82
2020/12/27 09:05:34;;;;;;;26.10;12.50;;;;;;;5.23;65.73;102133.52;1628828;88;21240;-82
2020/12/27 09:08:00;;;;;;;25.30;11.53;;;;;;;4.66;67.15;102139.52;1628922;88;21231;-82
2020/12/27 09:10:30;;;;;;;30.37;12.47;;;;;;;4.67;67.90;102141.98;1628927;88;21197;-82
2020/12/27 09:13:07;;;;;;;30.45;12.68;;;;;;;4.21;70.30;102146.09;1604524;89;21228;-82
2020/12/27 09:15:48;;;;;;;28.75;11.75;;;;;;;3.97;71.96;102143.11;1563572;89;21306;-82
2020/12/27 09:18:30;;;;;;;28.32;12.95;;;;;;;3.38;74.56;102138.77;1604549;89;21700;-82
2020/12/27 09:21:01;;;;;;;27.77;12.28;;;;;;;3.50;74.67;102142.73;1604532;89;21345;-82
2020/12/27 09:23:27;;;;;;;27.62;12.03;;;;;;;3.31;74.32;102134.64;1604438;89;21216;-82
2020/12/27 09:26:06;;;;;;;28.30;12.60;;;;;;;3.70;73.18;102136.94;1604452;89;21168;-82
2020/12/27 09:28:34;;;;;;;28.05;12.43;;;;;;;3.26;74.17;102132.17;1604432;89;21518;-84
2020/12/27 09:31:11;;;;;;;27.40;12.15;;;;;;;3.26;75.44;102130.84;1604375;89;21124;-83
2020/12/27 09:33:46;;;;;;;22.48;10.50;;;;;;;3.41;74.49;102133.95;1558171;90;21201;-84
2020/12/27 09:36:13;;;;;;;26.25;11.28;;;;;;;3.31;74.24;102137.81;1579286;89;21166;-84
2020/12/27 09:38:45;;;;;;;24.55;11.10;;;;;;;3.33;73.76;102135.81;1579336;90;21178;-84
2020/12/27 09:43:53;;;;;;;23.77;10.48;;;;;;;3.14;74.44;102147.19;1590044;89;21180;-84
2020/12/27 09:46:47;;;;;;;25.92;11.73;;;;;;;2.98;74.39;102141.94;1597375;87;27466;-83
2020/12/27 09:49:32;;;;;;;24.60;11.50;;;;;;;2.71;74.12;102136.02;1614863;88;21170;-85
2020/12/27 09:52:06;;;;;;;22.77;10.50;;;;;;;2.90;75.26;102131.30;1615530;88;21183;-84
2020/12/27 09:54:35;;;;;;;27.40;11.95;;;;;;;2.60;74.24;102135.54;1593950;88;21096;-84
2020/12/27 09:57:21;;;;;;;25.55;11.20;;;;;;;2.79;75.81;102126.34;1608708;87;21238;-84
2020/12/27 09:59:50;;;;;;;24.12;10.72;;;;;;;2.36;75.59;102123.93;1604120;87;21351;-84
2020/12/27 10:02:17;;;;;;;23.07;10.68;;;;;;;2.48;74.86;102125.23;1604297;87;21219;-83
2020/12/27 10:04:44;;;;;;;28.70;11.75;;;;;;;2.31;75.58;102126.75;1602829;87;21283;-84
2020/12/27 10:07:10;;;;;;;25.57;11.55;;;;;;;2.44;76.72;102122.59;1603961;87;21259;-84
2020/12/27 10:09:37;;;;;;;23.55;10.95;;;;;;;2.50;76.75;102124.58;1622702;86;21188;-84
2020/12/27 10:12:04;;;;;;;23.83;10.32;;;;;;;2.65;77.05;102130.05;1646648;86;21797;-84
2020/12/27 10:14:30;;;;;;;22.13;10.23;;;;;;;2.58;75.78;102132.20;1650486;86;21209;-84
2020/12/27 10:16:59;;;;;;;24.80;11.33;;;;;;;2.62;76.55;102124.23;1650466;86;21391;-84
2020/12/27 10:19:28;;;;;;;23.80;11.63;;;;;;;2.65;76.82;102119.91;1650547;86;21196;-84
2020/12/27 10:21:54;;;;;;;26.50;11.20;;;;;;;2.70;77.14;102121.03;1640255;87;21018;-84
2020/12/27 10:24:23;;;;;;;26.87;12.07;;;;;;;2.67;76.24;102122.70;1640406;87;21193;-83
2020/12/27 10:26:50;;;;;;;28.05;12.85;;;;;;;2.78;76.92;102129.50;1618746;87;21204;-84
2020/12/27 10:29:17;;;;;;;25.62;12.53;;;;;;;2.78;77.58;102136.16;1640455;87;21193;-84
2020/12/27 10:31:51;;;;;;;29.10;13.03;;;;;;;2.82;78.19;102126.82;1640396;87;21216;-84
2020/12/27 10:34:18;;;;;;;26.30;12.43;;;;;;;2.84;78.56;102118.17;1638169;87;21180;-84
2020/12/27 10:36:46;;;;;;;27.22;12.18;;;;;;;2.85;77.80;102119.00;1640365;87;21236;-83
2020/12/27 10:39:13;;;;;;;23.35;11.08;;;;;;;2.87;78.59;102122.33;1640221;87;21236;-84
2020/12/27 10:41:40;;;;;;;24.30;10.10;;;;;;;2.81;77.06;102115.03;1673109;84;21243;-84
2020/12/27 10:44:06;;;;;;;27.30;11.70;;;;;;;2.79;76.66;102123.17;1676000;85;21152;-83
2020/12/27 10:46:33;;;;;;;28.95;11.55;;;;;;;2.89;77.73;102119.01;1676001;85;21130;-84
2020/12/27 10:49:02;;;;;;;25.80;11.75;;;;;;;2.77;77.58;102117.71;1675927;85;21248;-84
2020/12/27 10:51:35;;;;;;;31.23;13.00;;;;;;;2.94;78.87;102120.63;1675779;85;21137;-84
2020/12/27 10:54:01;;;;;;;33.85;12.90;;;;;;;2.79;77.98;102119.69;1622278;87;21171;-84
2020/12/27 10:56:27;;;;;;;21.87;8.68;;;;;;;2.95;79.36;102121.80;1649448;85;21143;-84
2020/12/27 10:58:53;;;;;;;22.35;9.80;;;;;;;2.81;76.34;102121.69;1634167;86;20941;-84
2020/12/27 11:01:19;;;;;;;22.37;10.75;;;;;;;2.82;77.32;102117.50;1656485;86;21206;-84
2020/12/27 11:03:45;;;;;;;26.10;10.35;;;;;;;2.90;78.60;102124.65;1656570;86;21147;-83
2020/12/27 11:06:11;;;;;;;19.15;9.05;;;;;;;2.86;77.59;102131.33;1656528;86;21096;-84
2020/12/27 11:08:37;;;;;;;26.87;10.95;;;;;;;2.70;74.86;102136.17;1656481;86;21054;-84
2020/12/27 11:11:06;;;;;;;26.07;10.65;;;;;;;2.80;76.07;102136.01;1656648;86;20989;-85
2020/12/27 11:13:33;;;;;;;24.45;10.85;;;;;;;2.86;77.48;102139.31;1634777;86;22059;-84
2020/12/27 11:15:58;;;;;;;21.97;9.90;;;;;;;2.94;78.58;102144.59;1656409;86;20977;-84
2020/12/27 11:18:24;;;;;;;26.95;10.23;;;;;;;2.99;79.33;102151.58;1630639;86;21156;-84
2020/12/27 11:20:50;;;;;;;25.62;10.85;;;;;;;2.96;78.70;102154.58;1622609;87;21010;-84
2020/12/27 11:23:16;;;;;;;25.30;11.20;;;;;;;2.94;77.95;102153.91;1646234;86;20974;-83
2020/12/27 11:25:42;;;;;;;27.82;11.08;;;;;;;2.98;79.34;102156.58;1646183;86;21997;-83